Time;durP1;ratioP1;P1;durP2;ratioP2;P2;SDS_P1;SDS_P2;PMS_P1;PMS_P2;Temp;Humidity;BMP_temperature;BMP_pressure;BME280_temperature;BME280_humidity;BME280_pressure;Samples;Min_cycle;Max_cycle;Signal;HPM_P1;HPM_P2
2022/01/20 00:03:42;;;;;;;33.10;6.43;;;;;;;3.16;100.00;102388.72;5210616;28;20129;-74
2022/01/20 00:09:25;;;;;;;26.80;5.73;;;;;;;3.17;100.00;102387.84;5210979;28;20066;-74
2022/01/20 00:26:18;;;;;;;42.03;7.17;;;;;;;3.05;100.00;102397.38;5190177;28;20042;-74
2022/01/20 00:28:56;;;;;;;31.83;6.20;;;;;;;3.04;100.00;102394.81;5207455;28;20030;-74
2022/01/20 00:31:41;;;;;;;38.57;5.97;;;;;;;3.05;100.00;102399.97;5193622;28;20033;-74
2022/01/20 00:34:19;;;;;;;30.58;5.13;;;;;;;2.97;100.00;102388.75;5194374;28;20639;-74
2022/01/20 00:39:40;;;;;;;31.60;6.30;;;;;;;3.01;100.00;102406.88;5193783;28;20386;-74
2022/01/20 00:42:12;;;;;;;30.23;4.93;;;;;;;3.00;100.00;102393.94;5193555;28;20022;-74
2022/01/20 00:44:44;;;;;;;32.27;5.60;;;;;;;2.99;100.00;102400.84;5193062;28;20030;-74
2022/01/20 00:47:17;;;;;;;24.60;4.67;;;;;;;2.98;100.00;102398.25;5193777;28;20022;-74
2022/01/20 00:49:49;;;;;;;24.47;5.30;;;;;;;2.94;100.00;102393.94;5193997;28;20026;-74
2022/01/20 00:52:20;;;;;;;24.93;6.03;;;;;;;2.99;100.00;102390.47;5192684;28;20034;-74
2022/01/20 00:54:52;;;;;;;27.57;6.70;;;;;;;3.02;100.00;102399.94;5208623;28;20500;-74
2022/01/20 00:57:23;;;;;;;26.57;6.57;;;;;;;2.92;100.00;102377.56;5193775;28;20030;-74
2022/01/20 00:59:55;;;;;;;24.27;5.43;;;;;;;2.95;100.00;102395.69;5193781;28;20437;-74
2022/01/20 01:02:27;;;;;;;23.70;5.20;;;;;;;3.02;100.00;102412.91;5193839;28;20386;-74
2022/01/20 01:04:58;;;;;;;22.07;7.30;;;;;;;3.07;100.00;102411.16;5192058;28;20052;-75
2022/01/20 01:10:09;;;;;;;24.83;4.50;;;;;;;3.01;100.00;102406.88;5193577;28;20034;-74
2022/01/20 01:12:57;;;;;;;22.70;4.13;;;;;;;3.10;100.00;102418.94;5193583;28;20053;-74
2022/01/20 01:15:37;;;;;;;29.70;5.40;;;;;;;3.06;100.00;102430.16;5195212;28;20022;-74
2022/01/20 01:23:37;;;;;;;33.60;4.87;;;;;;;3.08;100.00;102433.59;5213448;28;20397;-74
2022/01/20 01:26:14;;;;;;;29.23;4.20;;;;;;;3.12;100.00;102426.69;5213633;28;20018;-73
2022/01/20 01:28:45;;;;;;;25.63;5.33;;;;;;;3.11;100.00;102428.41;5213596;28;20034;-74
2022/01/20 01:31:38;;;;;;;23.43;4.90;;;;;;;2.90;100.00;102418.97;5215159;28;20392;-74
2022/01/20 01:34:13;;;;;;;19.17;4.57;;;;;;;3.07;100.00;102426.69;5216077;28;20037;-74
2022/01/20 01:39:31;;;;;;;23.33;5.80;;;;;;;3.06;100.00;102421.53;5212444;28;19918;-74
2022/01/20 01:42:02;;;;;;;23.47;4.80;;;;;;;2.89;100.00;102420.72;5213602;28;20488;-74
2022/01/20 01:44:34;;;;;;;16.93;3.73;;;;;;;2.85;100.00;102416.41;5211527;28;20026;-73
2022/01/20 01:47:05;;;;;;;20.97;4.13;;;;;;;3.02;100.00;102428.44;5213489;28;20018;-73
2022/01/20 01:49:36;;;;;;;26.00;4.53;;;;;;;3.09;100.00;102434.47;5227941;28;20030;-74
2022/01/20 01:52:08;;;;;;;29.60;3.50;;;;;;;2.97;100.00;102410.31;5212643;28;20022;-73
2022/01/20 01:54:39;;;;;;;16.33;4.53;;;;;;;3.14;100.00;102438.75;5212816;28;20026;-72
2022/01/20 01:57:10;;;;;;;18.30;4.20;;;;;;;3.09;100.00;102434.47;5211348;28;20026;-73
2022/01/20 01:59:42;;;;;;;22.97;4.63;;;;;;;2.98;100.00;102426.72;5228175;28;20022;-74
2022/01/20 02:02:13;;;;;;;25.10;5.90;;;;;;;3.04;100.00;102439.66;5213122;28;20026;-73
2022/01/20 02:04:45;;;;;;;27.23;4.63;;;;;;;3.10;100.00;102425.84;5211629;28;20077;-73
2022/01/20 02:21:11;;;;;;;20.10;3.97;;;;;;;3.12;100.00;102435.34;5211927;28;20038;-73
2022/01/20 02:23:44;;;;;;;22.90;4.03;;;;;;;3.15;100.00;102444.81;5212587;28;20530;-74
2022/01/20 02:26:16;;;;;;;21.40;3.73;;;;;;;3.11;100.00;102454.31;5212526;28;20069;-74
2022/01/20 02:28:47;;;;;;;13.10;2.53;;;;;;;3.16;100.00;102448.28;5212632;28;20068;-74
2022/01/20 02:31:18;;;;;;;17.13;2.83;;;;;;;3.09;100.00;102447.44;5212267;28;20033;-74
2022/01/20 02:33:50;;;;;;;16.03;2.87;;;;;;;3.11;100.00;102436.19;5212712;28;20032;-74
2022/01/20 02:36:21;;;;;;;10.57;2.10;;;;;;;3.20;100.00;102424.94;5211497;28;20052;-74
2022/01/20 02:38:58;;;;;;;13.73;3.70;;;;;;;3.29;100.00;102436.13;5212413;28;20025;-74
2022/01/20 02:47:16;;;;;;;12.77;2.23;;;;;;;3.32;100.00;102425.75;5212063;28;20026;-74
2022/01/20 02:49:47;;;;;;;12.30;4.70;;;;;;;3.38;100.00;102424.03;5210695;28;20022;-74
2022/01/20 02:52:19;;;;;;;15.67;2.53;;;;;;;3.37;100.00;102435.25;5208957;28;20049;-74
2022/01/20 02:54:54;;;;;;;10.43;2.37;;;;;;;3.32;100.00;102426.63;5212376;28;20034;-73
2022/01/20 02:57:25;;;;;;;13.50;2.15;;;;;;;3.37;100.00;102430.06;5211839;28;20099;-74
2022/01/20 02:59:56;;;;;;;18.80;3.43;;;;;;;3.30;100.00;102406.78;5212260;28;20113;-74
2022/01/20 03:02:27;;;;;;;17.77;3.27;;;;;;;3.35;100.00;102426.59;5211706;28;20480;-74
2022/01/20 03:04:59;;;;;;;13.23;3.40;;;;;;;3.30;100.00;102406.78;5214239;28;20030;-74
2022/01/20 03:07:30;;;;;;;14.10;2.33;;;;;;;3.33;100.00;102406.78;5214122;28;20034;-73
2022/01/20 03:10:03;;;;;;;14.63;2.80;;;;;;;3.31;100.00;102399.00;5211957;28;20073;-74
2022/01/20 03:12:34;;;;;;;12.57;2.83;;;;;;;3.26;100.00;102408.53;5211565;28;20439;-74
2022/01/20 03:15:06;;;;;;;15.30;2.50;;;;;;;3.26;100.00;102411.97;5212041;28;20018;-74
2022/01/20 03:17:37;;;;;;;13.33;3.83;;;;;;;3.30;100.00;102419.75;5211821;28;20037;-74
2022/01/20 03:20:09;;;;;;;15.03;2.93;;;;;;;3.30;100.00;102415.41;5209775;28;20556;-70
2022/01/20 03:22:41;;;;;;;12.97;4.03;;;;;;;3.22;100.00;102409.41;5211571;28;20384;-74
2022/01/20 03:25:12;;;;;;;9.37;2.47;;;;;;;3.09;100.00;102398.22;5211437;28;20022;-74
2022/01/20 03:27:43;;;;;;;13.90;3.00;;;;;;;3.13;100.00;102390.44;5210497;28;20033;-74
2022/01/20 03:30:15;;;;;;;18.23;2.93;;;;;;;3.16;100.00;102402.50;5211519;28;20489;-74
2022/01/20 03:32:46;;;;;;;17.60;4.43;;;;;;;3.04;100.00;102390.47;5212170;28;20037;-74
2022/01/20 03:35:17;;;;;;;20.53;4.13;;;;;;;3.04;100.00;102397.38;5210494;28;20076;-73
2022/01/20 03:37:49;;;;;;;13.10;3.17;;;;;;;3.03;100.00;102388.75;5211223;28;20034;-74
2022/01/20 03:40:23;;;;;;;15.43;3.20;;;;;;;3.07;100.00;102393.03;5211564;28;20021;-74
2022/01/20 03:42:54;;;;;;;19.08;5.60;;;;;;;3.06;100.00;102390.44;5211241;28;20034;-74
2022/01/20 03:45:27;;;;;;;19.57;3.27;;;;;;;2.92;100.00;102390.50;5211750;28;20092;-73
2022/01/20 03:48:07;;;;;;;21.60;2.70;;;;;;;2.91;100.00;102394.81;5211186;28;20057;-74
2022/01/20 03:53:32;;;;;;;16.53;2.90;;;;;;;3.09;100.00;102399.06;5211305;28;20030;-74
2022/01/20 03:56:04;;;;;;;17.57;3.67;;;;;;;3.07;100.00;102394.78;5211603;28;20034;-73
2022/01/20 03:58:35;;;;;;;15.13;2.60;;;;;;;3.09;100.00;102388.72;5210650;28;20105;-73
2022/01/20 04:01:06;;;;;;;19.90;3.17;;;;;;;2.95;100.00;102395.69;5211700;28;20128;-73
2022/01/20 04:03:38;;;;;;;21.17;3.10;;;;;;;2.63;100.00;102322.44;5214160;28;20038;-73
2022/01/20 04:06:10;;;;;;;17.07;3.43;;;;;;;2.97;100.00;102402.56;5214193;28;20030;-73
2022/01/20 04:08:46;;;;;;;17.97;3.93;;;;;;;2.90;100.00;102398.25;5214987;28;20037;-74
2022/01/20 04:11:22;;;;;;;23.93;4.43;;;;;;;2.95;100.00;102400.88;5213868;28;20172;-73
2022/01/20 04:13:55;;;;;;;15.37;3.07;;;;;;;2.92;100.00;102416.38;5213645;28;20029;-73
2022/01/20 04:17:01;;;;;;;14.53;3.10;;;;;;;3.03;100.00;102419.81;5213834;28;20022;-74
2022/01/20 04:19:32;;;;;;;17.35;3.33;;;;;;;3.02;100.00;102418.06;5214724;28;20037;-73
2022/01/20 04:22:04;;;;;;;16.87;4.13;;;;;;;3.00;100.00;102417.25;5214130;28;20518;-73
2022/01/20 04:24:37;;;;;;;24.83;4.47;;;;;;;3.04;100.00;102424.13;5214976;28;20033;-73
2022/01/20 04:27:08;;;;;;;21.13;4.20;;;;;;;3.02;100.00;102418.94;5215206;28;20384;-73
2022/01/20 04:29:39;;;;;;;13.30;2.77;;;;;;;3.06;100.00;102434.47;5212640;28;20028;-73
2022/01/20 04:32:10;;;;;;;20.47;3.30;;;;;;;3.10;100.00;102436.19;5214957;28;20041;-72
2022/01/20 04:34:43;;;;;;;17.67;2.30;;;;;;;3.15;100.00;102429.28;5214371;28;20034;-71
2022/01/20 04:37:15;;;;;;;24.10;3.40;;;;;;;3.11;100.00;102443.94;5213073;28;20396;-73
2022/01/20 04:39:49;;;;;;;19.57;3.63;;;;;;;3.05;100.00;102459.50;5214512;28;20026;-74
2022/01/20 04:42:23;;;;;;;18.02;4.07;;;;;;;3.04;100.00;102470.72;5214841;28;20200;-74
2022/01/20 04:45:00;;;;;;;14.80;3.22;;;;;;;3.10;100.00;102436.19;5214686;28;20026;-74
2022/01/20 04:58:43;;;;;;;20.63;3.53;;;;;;;2.90;100.00;102448.31;5214212;28;20041;-74
2022/01/20 05:01:14;;;;;;;20.57;4.50;;;;;;;3.13;100.00;102457.75;5201695;28;20033;-75
2022/01/20 05:03:46;;;;;;;20.30;4.27;;;;;;;3.04;100.00;102462.94;5193731;28;20026;-74
2022/01/20 05:06:17;;;;;;;18.57;4.07;;;;;;;2.99;100.00;102468.13;5192851;28;20037;-74
2022/01/20 05:08:51;;;;;;;20.13;3.70;;;;;;;3.01;100.00;102474.19;5193532;28;20049;-74
2022/01/20 05:11:23;;;;;;;25.00;3.80;;;;;;;3.20;100.00;102478.44;5193455;28;20478;-73
2022/01/20 05:13:54;;;;;;;19.27;3.30;;;;;;;3.16;100.00;102476.75;5191580;28;20027;-75
2022/01/20 05:16:25;;;;;;;19.80;3.83;;;;;;;3.08;100.00;102482.81;5193612;28;20045;-73
2022/01/20 05:18:56;;;;;;;21.37;3.90;;;;;;;3.13;100.00;102468.13;5192228;28;20026;-73
2022/01/20 05:21:28;;;;;;;22.70;3.37;;;;;;;3.16;100.00;102487.09;5190923;28;20026;-74
2022/01/20 05:23:59;;;;;;;21.20;5.67;;;;;;;3.16;100.00;102487.94;5193787;28;20034;-73
2022/01/20 05:26:30;;;;;;;22.97;3.37;;;;;;;3.16;100.00;102481.94;5191707;28;20033;-74
2022/01/20 05:29:02;;;;;;;20.00;4.07;;;;;;;3.04;100.00;102483.66;5193285;28;20034;-73
2022/01/20 05:31:33;;;;;;;20.10;4.90;;;;;;;3.20;100.00;102499.16;5193123;28;20022;-73
2022/01/20 05:34:05;;;;;;;22.30;3.90;;;;;;;3.17;100.00;102489.69;5192445;28;20029;-73
2022/01/20 05:36:36;;;;;;;18.17;3.23;;;;;;;3.22;100.00;102487.09;5192495;28;20030;-73
2022/01/20 05:39:07;;;;;;;21.03;3.53;;;;;;;3.29;100.00;102498.28;5192944;28;20030;-74
2022/01/20 05:41:38;;;;;;;18.50;3.73;;;;;;;3.22;100.00;102528.50;5193175;28;20077;-74
2022/01/20 05:44:10;;;;;;;16.83;2.83;;;;;;;3.33;100.00;102525.91;5192823;28;20027;-74
2022/01/20 05:46:47;;;;;;;17.50;2.50;;;;;;;3.17;100.00;102510.41;5193306;28;20023;-73
2022/01/20 05:49:21;;;;;;;16.30;3.57;;;;;;;3.14;100.00;102516.44;5192505;28;20080;-74
2022/01/20 05:51:54;;;;;;;11.32;2.30;;;;;;;3.14;100.00;102520.78;5192328;28;20117;-74
2022/01/20 05:54:26;;;;;;;14.10;2.27;;;;;;;3.11;100.00;102531.97;5192553;28;20019;-74
2022/01/20 05:56:57;;;;;;;14.70;2.70;;;;;;;3.13;100.00;102529.38;5192898;28;20023;-74
2022/01/20 05:59:28;;;;;;;16.03;3.07;;;;;;;3.08;100.00;102539.75;5192811;28;20037;-73
2022/01/20 06:02:09;;;;;;;12.97;2.13;;;;;;;3.09;100.00;102549.22;5176998;28;20030;-74
2022/01/20 06:04:40;;;;;;;15.63;2.13;;;;;;;3.07;100.00;102550.94;5170447;28;20121;-74
2022/01/20 06:07:12;;;;;;;14.53;2.53;;;;;;;3.09;100.00;102545.81;5171951;28;20023;-74
2022/01/20 06:09:43;;;;;;;14.30;2.80;;;;;;;2.98;100.00;102551.84;5187486;28;20129;-73
2022/01/20 06:12:14;;;;;;;16.27;2.83;;;;;;;3.00;100.00;102549.25;5192146;28;20038;-74
2022/01/20 06:14:45;;;;;;;14.60;3.03;;;;;;;3.12;100.00;102561.31;5192528;28;20030;-74
2022/01/20 06:17:17;;;;;;;17.73;3.60;;;;;;;3.09;100.00;102571.69;5192263;28;20121;-73
2022/01/20 06:19:48;;;;;;;18.70;3.97;;;;;;;3.10;100.00;102561.34;5191817;28;20089;-73
2022/01/20 06:22:19;;;;;;;21.67;3.87;;;;;;;3.14;100.00;102568.22;5192413;28;20030;-74
2022/01/20 06:24:51;;;;;;;13.53;3.03;;;;;;;3.14;100.00;102575.16;5190376;28;20048;-74
2022/01/20 06:27:22;;;;;;;17.20;3.47;;;;;;;3.08;100.00;102578.59;5191984;28;20034;-73
2022/01/20 06:29:53;;;;;;;15.20;2.73;;;;;;;3.08;100.00;102575.13;5191645;28;20031;-74
2022/01/20 06:32:25;;;;;;;14.80;2.63;;;;;;;3.11;100.00;102591.53;5175752;28;20058;-73
2022/01/20 06:34:56;;;;;;;12.43;2.87;;;;;;;3.18;100.00;102589.78;5169550;28;20031;-74
2022/01/20 06:37:27;;;;;;;18.83;4.20;;;;;;;3.14;100.00;102588.09;5187906;28;20145;-73
2022/01/20 06:39:59;;;;;;;27.43;4.83;;;;;;;3.17;100.00;102587.22;5189806;28;20030;-74
2022/01/20 06:42:30;;;;;;;26.17;4.00;;;;;;;3.06;100.00;102588.06;5173576;28;20086;-74
2022/01/20 06:45:07;;;;;;;19.07;3.27;;;;;;;3.21;100.00;102594.13;5171432;28;20023;-73
2022/01/20 06:47:39;;;;;;;23.97;4.10;;;;;;;3.16;100.00;102593.25;5176298;28;20477;-74
2022/01/20 06:50:12;;;;;;;14.53;3.90;;;;;;;3.12;100.00;102603.63;5174322;28;20106;-73
2022/01/20 06:52:44;;;;;;;31.70;4.47;;;;;;;3.10;100.00;102615.69;5178586;28;20034;-71
2022/01/20 06:55:15;;;;;;;18.07;3.70;;;;;;;3.10;100.00;102609.66;5180886;28;20038;-74
2022/01/20 06:57:47;;;;;;;26.90;4.27;;;;;;;3.20;100.00;102618.28;5180041;28;20026;-74
2022/01/20 07:00:21;;;;;;;19.57;4.53;;;;;;;3.13;100.00;102633.81;5177900;28;20043;-74
2022/01/20 07:02:53;;;;;;;22.17;3.92;;;;;;;3.17;100.00;102628.63;5185998;28;20105;-73
2022/01/20 07:05:24;;;;;;;19.73;4.87;;;;;;;3.05;100.00;102634.69;5176093;28;20026;-74
2022/01/20 07:07:56;;;;;;;22.43;4.00;;;;;;;3.07;100.00;102636.38;5178860;28;20041;-72
2022/01/20 07:10:27;;;;;;;20.33;3.97;;;;;;;3.05;100.00;102640.72;5177876;28;20046;-76
2022/01/20 07:12:58;;;;;;;20.33;3.57;;;;;;;3.06;100.00;102642.44;5178554;28;20042;-75
2022/01/20 07:15:29;;;;;;;24.30;4.00;;;;;;;3.10;100.00;102644.19;5177609;28;20034;-73
2022/01/20 07:18:01;;;;;;;17.20;3.70;;;;;;;3.01;100.00;102654.50;5177261;28;20038;-74
2022/01/20 07:20:32;;;;;;;26.37;4.37;;;;;;;3.04;100.00;102645.91;5178472;28;20082;-73
2022/01/20 07:23:04;;;;;;;19.60;3.87;;;;;;;2.95;100.00;102644.16;5178978;28;20038;-73
2022/01/20 07:25:35;;;;;;;25.53;4.27;;;;;;;3.16;100.00;102653.66;5178839;28;20118;-72
2022/01/20 07:28:06;;;;;;;24.43;3.77;;;;;;;2.91;100.00;102656.25;5178580;28;20042;-71
2022/01/20 07:30:38;;;;;;;30.67;4.50;;;;;;;2.98;100.00;102659.69;5171594;28;20093;-72
2022/01/20 07:33:10;;;;;;;21.10;3.83;;;;;;;3.07;100.00;102675.22;5162925;28;20115;-73
2022/01/20 07:35:41;;;;;;;17.77;4.33;;;;;;;3.13;100.00;102670.06;5176180;28;20034;-72
2022/01/20 07:38:13;;;;;;;17.57;3.70;;;;;;;3.01;100.00;102681.28;5180155;28;20026;-76
2022/01/20 07:40:44;;;;;;;25.20;4.80;;;;;;;3.08;100.00;102682.16;5179840;28;20480;-73
2022/01/20 07:43:15;;;;;;;18.23;3.87;;;;;;;3.11;100.00;102678.69;5182540;28;20033;-72
2022/01/20 07:45:47;;;;;;;32.30;5.10;;;;;;;3.09;100.00;102686.44;5182632;28;20113;-72
2022/01/20 07:48:18;;;;;;;25.10;6.10;;;;;;;3.07;100.00;102675.22;5182403;28;20084;-71
2022/01/20 07:50:49;;;;;;;25.97;4.63;;;;;;;3.03;100.00;102686.44;5181016;28;20527;-74
2022/01/20 07:53:20;;;;;;;26.27;4.63;;;;;;;2.95;100.00;102675.22;5182578;28;20038;-72
2022/01/20 07:55:52;;;;;;;23.80;4.37;;;;;;;3.13;100.00;102701.13;5182811;28;20121;-74
2022/01/20 07:58:23;;;;;;;23.10;4.47;;;;;;;3.14;100.00;102708.03;5182526;28;20034;-78
2022/01/20 08:00:55;;;;;;;21.77;4.50;;;;;;;3.18;100.00;102713.25;5195965;28;20441;-76
2022/01/20 08:03:26;;;;;;;16.03;3.97;;;;;;;3.14;99.95;102718.38;5182712;28;20572;-76
2022/01/20 08:05:58;;;;;;;25.00;4.30;;;;;;;3.12;100.00;102702.00;5182098;28;20127;-73
2022/01/20 08:08:29;;;;;;;20.87;5.20;;;;;;;3.08;100.00;102697.69;5183164;28;20596;-74
2022/01/20 08:11:00;;;;;;;27.00;5.63;;;;;;;3.05;100.00;102702.84;5180327;28;20054;-74
2022/01/20 08:13:32;;;;;;;26.17;4.23;;;;;;;3.16;100.00;102715.81;5182047;28;21402;-76
2022/01/20 08:16:03;;;;;;;19.47;4.37;;;;;;;2.80;100.00;102668.28;5182106;28;20050;-74
2022/01/20 08:18:34;;;;;;;22.93;3.93;;;;;;;3.09;100.00;102722.69;5183167;28;20036;-80
2022/01/20 08:21:06;;;;;;;25.77;4.07;;;;;;;3.13;100.00;102719.25;5180780;28;20094;-80
2022/01/20 08:23:38;;;;;;;20.03;3.83;;;;;;;3.04;100.00;102731.34;5182610;28;20045;-77
2022/01/20 08:26:09;;;;;;;20.20;3.80;;;;;;;3.04;100.00;102739.09;5182523;28;20038;-73
2022/01/20 08:28:42;;;;;;;22.67;4.60;;;;;;;3.11;100.00;102739.09;5199087;28;20540;-80
2022/01/20 08:31:13;;;;;;;32.93;6.43;;;;;;;3.05;100.00;102744.28;5179644;28;20159;-81
2022/01/20 08:33:46;;;;;;;25.57;4.23;;;;;;;3.17;100.00;102738.25;5181924;28;20495;-81
2022/01/20 08:36:17;;;;;;;22.53;5.70;;;;;;;3.24;100.00;102744.31;5180498;28;21707;-78
2022/01/20 08:38:48;;;;;;;21.47;3.70;;;;;;;3.09;100.00;102734.81;5181027;28;20044;-76
2022/01/20 08:41:20;;;;;;;26.80;6.33;;;;;;;3.10;100.00;102736.50;5176284;28;20731;-77
2022/01/20 08:43:51;;;;;;;22.40;5.27;;;;;;;3.13;100.00;102747.75;5199506;28;20029;-78
2022/01/20 08:46:25;;;;;;;28.07;4.30;;;;;;;3.16;100.00;102741.69;5185024;28;20034;-78
2022/01/20 08:48:56;;;;;;;24.63;4.23;;;;;;;3.21;100.00;102758.09;5179588;28;20452;-79
2022/01/20 08:51:27;;;;;;;20.53;3.50;;;;;;;3.24;98.52;102759.84;5177429;28;20053;-78
2022/01/20 08:53:58;;;;;;;23.13;4.73;;;;;;;3.21;98.38;102755.50;5182202;28;20066;-78
2022/01/20 08:56:34;;;;;;;15.47;3.33;;;;;;;3.09;98.10;102746.00;5181469;28;20042;-78
2022/01/20 08:59:06;;;;;;;20.27;5.27;;;;;;;3.26;99.31;102758.97;5181510;28;20037;-78
2022/01/20 09:01:40;;;;;;;19.00;3.57;;;;;;;3.39;98.00;102757.28;5179031;28;20057;-78
2022/01/20 09:04:11;;;;;;;17.77;4.57;;;;;;;3.30;96.70;102744.31;5180682;28;20073;-78
2022/01/20 09:06:42;;;;;;;20.47;4.70;;;;;;;3.25;95.59;102769.34;5181399;28;20477;-79
2022/01/20 09:09:16;;;;;;;21.27;3.20;;;;;;;3.41;95.71;102766.78;5182684;28;20042;-78
2022/01/20 09:12:04;;;;;;;20.50;3.22;;;;;;;3.33;94.32;102783.19;5185695;28;20127;-78
2022/01/20 09:17:25;;;;;;;19.17;4.30;;;;;;;3.48;94.23;102789.25;5192057;28;20038;-78
2022/01/20 09:19:57;;;;;;;13.87;3.43;;;;;;;3.35;92.37;102789.22;5186282;28;20011;-77
2022/01/20 09:22:30;;;;;;;10.83;3.03;;;;;;;3.38;91.72;102799.63;5188781;28;20030;-78
2022/01/20 09:25:01;;;;;;;16.03;3.30;;;;;;;3.34;94.86;102802.16;5191514;28;20094;-78
2022/01/20 09:27:33;;;;;;;20.03;3.40;;;;;;;3.30;94.99;102803.88;5190515;28;20124;-78
2022/01/20 09:30:05;;;;;;;14.03;3.70;;;;;;;3.43;94.31;102788.38;5189131;28;20030;-78
2022/01/20 09:32:39;;;;;;;19.47;3.20;;;;;;;3.50;93.96;102792.72;5192978;28;20117;-77
2022/01/20 09:35:10;;;;;;;11.13;2.75;;;;;;;3.38;92.82;102770.25;5190848;28;20084;-77
2022/01/20 09:37:42;;;;;;;15.27;3.53;;;;;;;3.54;95.37;102791.88;5191740;28;20026;-77
2022/01/20 09:40:13;;;;;;;22.10;3.70;;;;;;;3.51;91.77;102795.31;5189214;28;20069;-78
2022/01/20 09:42:45;;;;;;;24.17;4.80;;;;;;;3.66;93.34;102784.94;5192516;28;20101;-77
2022/01/20 09:45:16;;;;;;;19.87;3.57;;;;;;;3.72;94.69;102782.34;5190466;28;20548;-77
2022/01/20 09:47:47;;;;;;;21.97;3.07;;;;;;;3.83;93.04;102777.19;5192901;28;20385;-79
2022/01/20 09:50:21;;;;;;;20.40;5.07;;;;;;;4.03;94.37;102784.97;5188298;28;20030;-77
2022/01/20 09:52:58;;;;;;;21.53;3.67;;;;;;;3.97;93.48;102798.78;5192100;28;20448;-78
2022/01/20 09:55:32;;;;;;;16.07;3.00;;;;;;;3.94;92.68;102792.75;5191601;28;20030;-77
2022/01/20 09:58:05;;;;;;;14.98;2.72;;;;;;;4.11;91.99;102803.97;5192607;28;20029;-74
2022/01/20 10:00:39;;;;;;;12.00;3.00;;;;;;;4.22;93.11;102821.25;5192811;28;20081;-77
2022/01/20 10:03:13;;;;;;;15.00;3.97;;;;;;;4.35;91.87;102819.50;5198735;28;20026;-75
2022/01/20 10:05:52;;;;;;;21.50;3.40;;;;;;;4.40;91.40;102828.13;5189607;28;20608;-78
2022/01/20 10:08:26;;;;;;;15.17;2.87;;;;;;;4.21;89.71;102842.84;5189327;28;20042;-76
2022/01/20 10:11:07;;;;;;;18.25;3.80;;;;;;;4.43;90.64;102845.44;5188712;28;20105;-77
2022/01/20 10:13:42;;;;;;;15.13;3.33;;;;;;;4.40;89.38;102840.25;5191179;28;20033;-76
2022/01/20 10:16:16;;;;;;;15.03;2.47;;;;;;;4.46;90.62;102841.13;5191568;28;20049;-77
2022/01/20 10:18:53;;;;;;;21.00;4.28;;;;;;;4.30;89.05;102822.09;5190765;28;20081;-78
2022/01/20 10:21:34;;;;;;;14.37;3.70;;;;;;;4.44;89.55;102837.66;5188823;28;20026;-77
2022/01/20 10:24:08;;;;;;;13.87;2.97;;;;;;;4.50;88.30;102848.88;5191121;28;20033;-77
2022/01/20 10:26:40;;;;;;;15.50;3.45;;;;;;;4.41;88.39;102849.75;5191403;28;20053;-78
2022/01/20 10:29:14;;;;;;;18.30;4.17;;;;;;;4.26;89.20;102856.69;5191112;28;20049;-77
2022/01/20 10:31:52;;;;;;;16.25;2.95;;;;;;;4.44;87.32;102860.13;5189038;28;20035;-77
2022/01/20 10:34:31;;;;;;;15.13;2.80;;;;;;;4.35;87.59;102863.59;5191301;28;20099;-78
2022/01/20 10:37:14;;;;;;;18.13;3.60;;;;;;;4.45;87.24;102867.91;5200822;28;20492;-77
2022/01/20 10:39:47;;;;;;;15.67;3.20;;;;;;;4.50;85.60;102860.13;5193200;28;20034;-77
2022/01/20 10:42:23;;;;;;;11.13;2.90;;;;;;;4.65;81.23;102874.81;5188049;28;20022;-77
2022/01/20 10:44:56;;;;;;;21.90;3.90;;;;;;;4.80;80.99;102870.47;5190922;28;20101;-77
2022/01/20 10:47:30;;;;;;;23.38;4.07;;;;;;;4.76;82.67;102872.19;5191059;28;20030;-77
2022/01/20 10:50:36;;;;;;;16.52;3.30;;;;;;;5.00;85.32;102866.91;5189452;28;20916;-78
2022/01/20 10:53:18;;;;;;;13.85;3.60;;;;;;;5.03;81.49;102875.56;5149748;28;20038;-78
2022/01/20 10:55:51;;;;;;;13.87;3.03;;;;;;;4.95;80.63;102875.59;5192002;28;20064;-77
2022/01/20 10:58:23;;;;;;;13.83;4.07;;;;;;;4.85;80.50;102868.72;5190709;28;20057;-77
2022/01/20 11:00:56;;;;;;;18.00;3.83;;;;;;;4.85;79.89;102853.13;5188640;28;20542;-78
2022/01/20 11:03:28;;;;;;;19.77;4.10;;;;;;;4.94;78.14;102854.84;5190103;28;20034;-80
2022/01/20 11:05:59;;;;;;;27.07;4.30;;;;;;;4.82;78.22;102856.59;5190657;28;20109;-78
2022/01/20 11:08:31;;;;;;;11.70;2.93;;;;;;;4.96;79.15;102868.66;5190634;28;20123;-77
2022/01/20 11:11:02;;;;;;;16.43;3.07;;;;;;;4.89;77.90;102859.16;5188103;28;20050;-79
2022/01/20 11:13:33;;;;;;;12.90;3.53;;;;;;;4.72;77.57;102857.50;5189889;28;20030;-78
2022/01/20 11:16:05;;;;;;;23.53;3.87;;;;;;;4.96;78.05;102877.31;5190497;28;20056;-77
2022/01/20 11:18:37;;;;;;;16.63;3.67;;;;;;;4.93;78.39;102866.94;5190545;28;20054;-74
2022/01/20 11:21:09;;;;;;;21.90;3.40;;;;;;;4.95;76.32;102872.13;5195905;28;20022;-81
2022/01/20 11:23:42;;;;;;;21.27;4.57;;;;;;;5.01;77.53;102879.06;5193936;28;20085;-79
2022/01/20 11:26:13;;;;;;;15.27;2.77;;;;;;;4.96;78.84;102866.06;5190938;28;20030;-79
2022/01/20 11:28:58;;;;;;;18.73;2.97;;;;;;;5.15;79.12;102866.84;5190632;28;20045;-79
2022/01/20 11:31:33;;;;;;;15.00;3.23;;;;;;;5.17;78.30;102859.94;5187177;28;20035;-76
2022/01/20 11:34:16;;;;;;;13.80;3.77;;;;;;;5.43;78.22;102865.84;5188464;28;20034;-75
2022/01/20 11:36:48;;;;;;;16.53;4.60;;;;;;;5.42;76.38;102862.41;5187540;28;20559;-73
2022/01/20 11:39:24;;;;;;;19.67;3.73;;;;;;;5.39;76.09;102856.38;5188066;28;20058;-74
2022/01/20 11:41:56;;;;;;;12.63;3.03;;;;;;;5.30;74.48;102852.97;5188433;28;20318;-73
2022/01/20 11:44:31;;;;;;;19.80;3.37;;;;;;;5.23;74.50;102852.97;5188733;28;20033;-73
2022/01/20 11:47:08;;;;;;;17.77;3.15;;;;;;;5.40;76.08;102858.97;5190875;28;20065;-74
2022/01/20 11:49:43;;;;;;;14.50;3.20;;;;;;;5.31;74.52;102849.47;5188328;28;20535;-74
2022/01/20 11:52:24;;;;;;;12.87;3.57;;;;;;;5.31;74.18;102854.66;5200767;28;20084;-76
2022/01/20 11:54:55;;;;;;;19.00;3.43;;;;;;;5.23;72.86;102850.38;5190244;28;20046;-77
2022/01/20 11:57:30;;;;;;;16.37;3.23;;;;;;;5.24;73.95;102847.78;5182361;28;20022;-75
2022/01/20 12:00:03;;;;;;;;;;;;;;;5.44;76.92;102847.69;5185911;28;20432;-75
2022/01/20 12:02:38;;;;;;;14.17;2.57;;;;;;;5.24;75.24;102847.78;5200071;28;19918;-75
2022/01/20 12:05:19;;;;;;;14.50;4.18;;;;;;;5.26;75.14;102866.81;5182364;28;20126;-75
2022/01/20 12:07:50;;;;;;;14.93;3.33;;;;;;;5.15;73.41;102843.47;5181374;28;20026;-75
2022/01/20 12:10:26;;;;;;;20.47;3.73;;;;;;;5.30;73.92;102857.28;5175642;28;21048;-74
2022/01/20 12:13:06;;;;;;;23.87;3.60;;;;;;;5.20;74.44;102846.06;5194237;28;20057;-76
2022/01/20 12:15:56;;;;;;;19.20;3.63;;;;;;;5.06;77.29;102831.41;5190225;28;20076;-72
2022/01/20 12:18:30;;;;;;;15.93;3.70;;;;;;;5.18;75.22;102838.25;5189543;28;20105;-79
2022/01/20 12:21:04;;;;;;;;;;;;;;;5.40;78.48;102830.38;5195692;28;20022;-78
2022/01/20 12:23:42;;;;;;;17.20;3.30;;;;;;;5.43;75.48;102826.88;5195402;28;19914;-79
2022/01/20 12:26:14;;;;;;;13.30;3.70;;;;;;;5.42;76.09;102826.03;5190600;28;20038;-79
2022/01/20 12:28:45;;;;;;;23.13;2.93;;;;;;;5.26;73.20;102825.25;5194563;28;20036;-79
2022/01/20 12:31:17;;;;;;;17.50;3.53;;;;;;;5.31;75.92;102820.91;5199885;28;20030;-79
2022/01/20 12:33:48;;;;;;;14.20;2.90;;;;;;;5.22;74.41;102812.28;5195134;28;20037;-79
2022/01/20 12:36:19;;;;;;;18.60;3.77;;;;;;;5.36;76.49;102833.00;5193849;28;20478;-80
2022/01/20 12:38:52;;;;;;;16.00;2.87;;;;;;;5.35;74.67;102844.25;5190938;28;20473;-81
2022/01/20 12:41:24;;;;;;;8.90;2.73;;;;;;;5.33;73.57;102842.53;5200719;28;20034;-80
2022/01/20 12:44:05;;;;;;;16.77;3.43;;;;;;;5.37;74.54;102838.19;5194636;28;20080;-81
2022/01/20 12:46:39;;;;;;;15.27;3.47;;;;;;;5.37;73.79;102848.59;5193311;28;20026;-81
2022/01/20 12:49:13;;;;;;;14.63;3.60;;;;;;;5.32;72.45;102845.16;5190736;28;20045;-80
2022/01/20 12:51:45;;;;;;;13.50;2.43;;;;;;;5.18;71.45;102840.88;5189571;28;20406;-80
2022/01/20 12:54:27;;;;;;;16.03;3.97;;;;;;;5.10;72.53;102837.44;5190714;28;20470;-79
2022/01/20 12:57:02;;;;;;;10.63;1.90;;;;;;;5.04;73.60;102830.56;5188083;28;20046;-80